Time;durP1;ratioP1;P1;durP2;ratioP2;P2;SDS_P1;SDS_P2;PMS_P1;PMS_P2;Temp;Humidity;BMP_temperature;BMP_pressure;BME280_temperature;BME280_humidity;BME280_pressure;Samples;Min_cycle;Max_cycle;Signal;HPM_P1;HPM_P2
2023/12/20 02:08:19;;;;;;;;;;;24.50;44.20;;;;;;2877302;19;50729;-68
2023/12/20 02:09:22;;;;;;;;;;;20.70;42.10;;;;;;3046552;19;5347;-68
2023/12/20 02:10:24;;;;;;;;;;;20.70;42.10;;;;;;3047859;19;4679;-72
2023/12/20 02:11:25;;;;;;;;;;;20.60;42.10;;;;;;3026610;19;4833;-72
2023/12/20 02:12:25;;;;;;;;;;;20.60;42.10;;;;;;3048807;19;5346;-73
2023/12/20 02:13:26;;;;;;;;;;;20.60;42.10;;;;;;3052030;19;5766;-72
2023/12/20 02:14:27;;;;;;;;;;;20.60;42.10;;;;;;3029999;19;4532;-71
2023/12/20 02:15:27;;;;;;;;;;;20.60;42.10;;;;;;3051920;19;5296;-71
2023/12/20 02:16:28;;;;;;;;;;;20.60;42.10;;;;;;3030778;19;4662;-71
2023/12/20 02:17:29;;;;;;;;;;;20.60;42.10;;;;;;3052559;19;5417;-71
2023/12/20 02:18:30;;;;;;;;;;;20.60;42.10;;;;;;3047086;19;5410;-70
2023/12/20 02:19:31;;;;;;;;;;;20.60;42.00;;;;;;3030626;19;5492;-72
2023/12/20 02:20:32;;;;;;;;;;;20.60;42.10;;;;;;3051952;19;5399;-71
2023/12/20 02:21:36;;;;;;;;;;;20.60;42.20;;;;;;3052419;19;5381;-72
2023/12/20 02:22:38;;;;;;;;;;;20.60;42.10;;;;;;3029943;19;5321;-71
2023/12/20 02:23:38;;;;;;;;;;;20.60;42.20;;;;;;3031301;19;5233;-72
2023/12/20 02:24:39;;;;;;;;;;;20.60;42.10;;;;;;3031024;19;4854;-71
2023/12/20 02:25:40;;;;;;;;;;;20.60;42.10;;;;;;3052524;19;5416;-71
2023/12/20 02:26:42;;;;;;;;;;;20.60;42.10;;;;;;3052516;19;4690;-71
2023/12/20 02:27:44;;;;;;;;;;;20.60;42.20;;;;;;3030403;19;5261;-71
2023/12/20 02:28:44;;;;;;;;;;;20.60;42.30;;;;;;3052499;19;5354;-71
2023/12/20 02:29:46;;;;;;;;;;;20.60;42.30;;;;;;3029996;19;4671;-72
2023/12/20 02:30:47;;;;;;;;;;;20.60;42.20;;;;;;3051691;19;4852;-72
2023/12/20 02:31:47;;;;;;;;;;;20.60;42.20;;;;;;3052427;19;4870;-71
2023/12/20 02:32:49;;;;;;;;;;;20.60;42.20;;;;;;3030118;19;5611;-70
2023/12/20 02:33:50;;;;;;;;;;;20.60;42.30;;;;;;3052678;19;5268;-72
2023/12/20 02:34:50;;;;;;;;;;;20.60;42.30;;;;;;3051206;19;5422;-71
2023/12/20 02:35:52;;;;;;;;;;;20.50;42.20;;;;;;3030279;19;5327;-71
2023/12/20 02:36:53;;;;;;;;;;;20.60;42.30;;;;;;3052873;19;5305;-71
2023/12/20 02:37:53;;;;;;;;;;;20.60;42.20;;;;;;3030861;19;4907;-72
2023/12/20 02:38:57;;;;;;;;;;;20.50;42.30;;;;;;3052576;19;5346;-71
2023/12/20 02:40:00;;;;;;;;;;;20.50;42.30;;;;;;3052919;19;5285;-72
2023/12/20 02:41:03;;;;;;;;;;;20.50;42.30;;;;;;3031018;19;5650;-72
2023/12/20 02:42:03;;;;;;;;;;;20.50;42.40;;;;;;3052138;19;5715;-71
2023/12/20 02:43:04;;;;;;;;;;;20.50;42.20;;;;;;3030160;19;4768;-71
2023/12/20 02:44:05;;;;;;;;;;;20.50;42.20;;;;;;3052655;19;5343;-72
2023/12/20 02:45:07;;;;;;;;;;;20.50;42.20;;;;;;3052459;19;5260;-72
2023/12/20 02:46:08;;;;;;;;;;;20.50;42.30;;;;;;3030065;19;5389;-72
2023/12/20 02:47:09;;;;;;;;;;;20.50;42.20;;;;;;3051929;19;5439;-72
2023/12/20 02:48:10;;;;;;;;;;;20.50;42.40;;;;;;3052856;19;5324;-72
2023/12/20 02:49:13;;;;;;;;;;;20.50;42.20;;;;;;3031882;19;4761;-71
2023/12/20 02:50:16;;;;;;;;;;;20.50;42.40;;;;;;3053858;19;980;-72
2023/12/20 02:51:16;;;;;;;;;;;20.50;42.40;;;;;;3031960;19;5332;-71
2023/12/20 02:52:17;;;;;;;;;;;20.50;42.20;;;;;;3052226;19;5573;-70
2023/12/20 02:53:18;;;;;;;;;;;20.50;42.40;;;;;;3051779;19;5353;-72
2023/12/20 02:54:19;;;;;;;;;;;20.50;42.30;;;;;;3029276;19;5365;-71
2023/12/20 02:55:19;;;;;;;;;;;20.50;42.30;;;;;;3052877;19;5360;-72
2023/12/20 02:56:21;;;;;;;;;;;20.50;42.40;;;;;;3031641;19;5408;-71
2023/12/20 02:57:25;;;;;;;;;;;20.50;42.30;;;;;;3052781;19;5360;-72
2023/12/20 02:58:25;;;;;;;;;;;20.50;42.30;;;;;;3053545;19;5419;-71
2023/12/20 02:59:26;;;;;;;;;;;20.50;42.40;;;;;;3032319;19;5321;-72
2023/12/20 03:00:26;;;;;;;;;;;20.50;42.30;;;;;;3053727;19;5374;-72
2023/12/20 03:01:28;;;;;;;;;;;20.50;42.50;;;;;;3054206;19;5428;-72
2023/12/20 03:02:30;;;;;;;;;;;20.50;42.40;;;;;;3032536;19;5239;-72
2023/12/20 03:03:31;;;;;;;;;;;20.50;42.40;;;;;;3053899;19;4743;-71
2023/12/20 03:04:31;;;;;;;;;;;20.50;42.30;;;;;;3031998;19;5276;-72
2023/12/20 03:05:33;;;;;;;;;;;20.50;42.50;;;;;;3054709;19;5762;-72
2023/12/20 03:06:34;;;;;;;;;;;20.50;42.50;;;;;;3053907;19;4749;-71
2023/12/20 03:07:36;;;;;;;;;;;20.50;42.50;;;;;;3031735;19;4892;-72
2023/12/20 03:08:38;;;;;;;;;;;20.50;42.50;;;;;;3054431;19;4659;-70
2023/12/20 03:09:39;;;;;;;;;;;20.50;42.50;;;;;;3030853;19;6152;-71
2023/12/20 03:10:39;;;;;;;;;;;20.40;42.50;;;;;;3054056;19;5292;-72
2023/12/20 03:11:40;;;;;;;;;;;20.50;42.50;;;;;;3053527;19;4897;-71
2023/12/20 03:12:40;;;;;;;;;;;20.40;42.50;;;;;;3033483;19;5648;-72
2023/12/20 03:13:43;;;;;;;;;;;20.40;42.70;;;;;;3054770;19;5317;-71
2023/12/20 03:14:44;;;;;;;;;;;20.40;42.70;;;;;;3033850;19;5428;-71
2023/12/20 03:15:45;;;;;;;;;;;20.40;42.60;;;;;;3032999;19;5130;-71
2023/12/20 03:16:50;;;;;;;;;;;20.50;42.60;;;;;;3056475;19;5392;-71
2023/12/20 03:17:51;;;;;;;;;;;20.40;42.50;;;;;;3034937;19;5292;-72
2023/12/20 03:18:52;;;;;;;;;;;20.40;42.60;;;;;;3037065;19;4683;-71
2023/12/20 03:19:52;;;;;;;;;;;20.40;42.50;;;;;;3063181;19;5205;-71
2023/12/20 03:20:53;;;;;;;;;;;20.40;42.60;;;;;;3052807;19;4905;-71
2023/12/20 03:21:54;;;;;;;;;;;20.40;42.70;;;;;;3075628;19;5407;-72
2023/12/20 03:22:54;;;;;;;;;;;20.40;42.70;;;;;;3075605;19;5327;-71
2023/12/20 03:23:55;;;;;;;;;;;20.40;42.50;;;;;;3052540;19;20981;-71
2023/12/20 03:24:57;;;;;;;;;;;20.40;42.60;;;;;;3075262;19;5338;-72
2023/12/20 03:25:58;;;;;;;;;;;20.40;42.70;;;;;;3053481;19;4794;-73
2023/12/20 03:26:58;;;;;;;;;;;20.40;42.60;;;;;;3075348;19;4811;-75
2023/12/20 03:28:00;;;;;;;;;;;20.40;42.70;;;;;;3075005;19;4939;-71
2023/12/20 03:29:01;;;;;;;;;;;20.40;42.70;;;;;;3053133;19;5352;-74
2023/12/20 03:30:02;;;;;;;;;;;20.40;42.60;;;;;;3075215;19;5251;-71
2023/12/20 03:31:03;;;;;;;;;;;20.40;42.70;;;;;;3053108;19;5270;-72
2023/12/20 03:32:04;;;;;;;;;;;20.40;42.70;;;;;;3075006;19;4675;-72
2023/12/20 03:33:05;;;;;;;;;;;20.40;42.70;;;;;;3075145;19;5046;-72
2023/12/20 03:34:06;;;;;;;;;;;20.40;42.80;;;;;;3052790;19;4684;-72
2023/12/20 03:35:06;;;;;;;;;;;20.40;42.70;;;;;;3075082;19;5406;-72
2023/12/20 03:36:07;;;;;;;;;;;20.40;42.70;;;;;;3074140;19;5375;-72
2023/12/20 03:37:08;;;;;;;;;;;20.40;42.50;;;;;;3052060;19;5366;-71
2023/12/20 03:38:10;;;;;;;;;;;20.40;42.30;;;;;;3073390;19;5482;-72
2023/12/20 03:39:10;;;;;;;;;;;20.40;42.30;;;;;;3051516;19;5246;-72
2023/12/20 03:40:11;;;;;;;;;;;20.40;42.40;;;;;;3065170;19;4679;-70
2023/12/20 03:41:12;;;;;;;;;;;20.40;42.40;;;;;;3062635;19;1499;-72
2023/12/20 03:42:13;;;;;;;;;;;20.50;42.50;;;;;;3039370;19;5378;-70
2023/12/20 03:43:13;;;;;;;;;;;20.60;42.50;;;;;;3060458;19;4788;-72
2023/12/20 03:44:14;;;;;;;;;;;20.60;42.40;;;;;;3060493;19;5406;-69
2023/12/20 03:45:14;;;;;;;;;;;20.60;42.30;;;;;;3037873;19;4588;-71
2023/12/20 03:46:15;;;;;;;;;;;20.70;42.30;;;;;;3058556;19;5660;-70
2023/12/20 03:47:16;;;;;;;;;;;20.70;42.20;;;;;;3038446;19;4766;-71
2023/12/20 03:48:16;;;;;;;;;;;20.80;42.20;;;;;;3059638;19;5423;-71
2023/12/20 03:49:17;;;;;;;;;;;20.80;42.10;;;;;;3060347;19;4810;-71
2023/12/20 03:50:19;;;;;;;;;;;20.80;42.20;;;;;;3037490;19;4796;-71
2023/12/20 03:51:19;;;;;;;;;;;20.80;42.10;;;;;;3059269;19;4648;-71
2023/12/20 03:52:21;;;;;;;;;;;20.80;42.10;;;;;;3038354;19;4787;-71
2023/12/20 03:53:23;;;;;;;;;;;20.80;42.00;;;;;;3059374;19;5424;-70
2023/12/20 03:54:24;;;;;;;;;;;20.80;42.00;;;;;;3058831;19;4678;-70
2023/12/20 03:55:27;;;;;;;;;;;20.80;42.00;;;;;;3031767;19;5320;-71
2023/12/20 03:56:28;;;;;;;;;;;20.80;42.00;;;;;;3058392;19;4992;-71
2023/12/20 03:57:29;;;;;;;;;;;20.80;42.00;;;;;;3058915;19;4892;-70
2023/12/20 03:58:29;;;;;;;;;;;20.90;42.00;;;;;;3037611;19;4719;-70
2023/12/20 03:59:30;;;;;;;;;;;21.00;41.90;;;;;;3056643;19;4996;-69
2023/12/20 04:00:30;;;;;;;;;;;20.90;41.80;;;;;;3034546;19;4998;-70
2023/12/20 04:01:31;;;;;;;;;;;21.00;41.70;;;;;;3056432;19;5395;-70
2023/12/20 04:02:32;;;;;;;;;;;21.00;41.60;;;;;;3055940;19;5363;-70
2023/12/20 04:03:32;;;;;;;;;;;21.10;41.60;;;;;;3033805;19;6325;-71
2023/12/20 04:04:34;;;;;;;;;;;21.10;41.60;;;;;;3054122;19;5799;-70
2023/12/20 04:05:35;;;;;;;;;;;21.10;41.50;;;;;;3054247;19;5622;-71
2023/12/20 04:06:37;;;;;;;;;;;21.20;41.50;;;;;;3031025;19;22336;-71
2023/12/20 04:07:38;;;;;;;;;;;21.20;41.40;;;;;;3053040;19;5378;-71
2023/12/20 04:08:40;;;;;;;;;;;21.10;41.40;;;;;;3034001;19;5495;-70
2023/12/20 04:09:41;;;;;;;;;;;21.20;41.50;;;;;;3055849;19;4692;-69
2023/12/20 04:10:41;;;;;;;;;;;21.20;41.50;;;;;;3056935;19;5072;-72
2023/12/20 04:11:42;;;;;;;;;;;21.10;41.40;;;;;;3033858;19;7686;-72
2023/12/20 04:12:42;;;;;;;;;;;21.10;41.40;;;;;;3055586;19;4718;-72
2023/12/20 04:13:43;;;;;;;;;;;21.20;41.50;;;;;;3033897;19;5265;-73
2023/12/20 04:14:44;;;;;;;;;;;21.10;41.50;;;;;;3055784;19;5370;-71
2023/12/20 04:15:44;;;;;;;;;;;21.10;41.40;;;;;;3055227;19;5435;-70
2023/12/20 04:16:45;;;;;;;;;;;21.20;41.40;;;;;;3050418;19;7354;-72
2023/12/20 04:17:46;;;;;;;;;;;21.30;41.30;;;;;;3052585;19;4824;-71
2023/12/20 04:18:47;;;;;;;;;;;21.30;41.20;;;;;;3053776;19;4645;-72
2023/12/20 04:19:51;;;;;;;;;;;21.30;41.10;;;;;;3032208;19;5669;-71
2023/12/20 04:20:51;;;;;;;;;;;21.30;41.00;;;;;;3052815;19;5518;-71
2023/12/20 04:21:52;;;;;;;;;;;21.40;41.20;;;;;;3032108;19;5429;-70
2023/12/20 04:22:53;;;;;;;;;;;21.40;41.10;;;;;;3052012;19;5436;-71
2023/12/20 04:23:53;;;;;;;;;;;21.40;41.00;;;;;;3054362;19;5388;-74
2023/12/20 04:24:56;;;;;;;;;;;21.40;41.10;;;;;;3045346;19;6837;-72
2023/12/20 04:25:58;;;;;;;;;;;21.40;41.10;;;;;;3053383;19;4975;-72
2023/12/20 04:26:58;;;;;;;;;;;21.40;41.00;;;;;;3031811;19;5266;-70
2023/12/20 04:27:59;;;;;;;;;;;21.40;41.10;;;;;;3051904;19;5271;-72
2023/12/20 04:28:59;;;;;;;;;;;21.30;41.10;;;;;;3052586;19;4760;-71
2023/12/20 04:30:00;;;;;;;;;;;21.30;41.10;;;;;;3032078;19;4634;-71
2023/12/20 04:31:01;;;;;;;;;;;21.30;41.20;;;;;;3050491;19;4844;-76
2023/12/20 04:32:01;;;;;;;;;;;21.30;41.00;;;;;;3051915;19;4779;-76
2023/12/20 04:33:03;;;;;;;;;;;21.30;41.00;;;;;;3042006;19;6002;-75
2023/12/20 04:34:04;;;;;;;;;;;21.30;41.20;;;;;;3050561;19;5298;-75
2023/12/20 04:35:05;;;;;;;;;;;21.30;41.20;;;;;;3030028;19;5341;-75
2023/12/20 04:36:06;;;;;;;;;;;21.30;41.20;;;;;;3028332;19;5331;-73
2023/12/20 04:37:06;;;;;;;;;;;21.30;41.20;;;;;;3051810;19;1440;-75
2023/12/20 04:38:09;;;;;;;;;;;21.30;41.10;;;;;;3022071;19;20883;-74
2023/12/20 04:39:11;;;;;;;;;;;21.30;41.10;;;;;;3050789;19;5450;-77
2023/12/20 04:40:12;;;;;;;;;;;21.30;41.20;;;;;;3052220;19;1039;-75
2023/12/20 04:41:15;;;;;;;;;;;21.30;41.20;;;;;;3042480;19;7075;-75
2023/12/20 04:42:16;;;;;;;;;;;21.30;41.10;;;;;;3048399;19;4713;-75
2023/12/20 04:43:18;;;;;;;;;;;21.30;41.10;;;;;;3030154;19;5201;-76
2023/12/20 04:44:19;;;;;;;;;;;21.30;41.10;;;;;;3051502;19;5157;-75
2023/12/20 04:45:20;;;;;;;;;;;21.30;41.00;;;;;;3051280;19;5535;-75
2023/12/20 04:46:21;;;;;;;;;;;21.40;41.10;;;;;;3029415;19;5362;-75
2023/12/20 04:47:22;;;;;;;;;;;21.40;41.00;;;;;;3050845;19;5628;-74
2023/12/20 04:48:24;;;;;;;;;;;21.40;40.90;;;;;;3040453;19;6567;-74
2023/12/20 04:49:26;;;;;;;;;;;21.50;40.90;;;;;;3049233;19;4741;-76
2023/12/20 04:50:26;;;;;;;;;;;21.50;40.90;;;;;;3051092;19;5497;-75
2023/12/20 04:51:27;;;;;;;;;;;21.50;40.90;;;;;;3029351;19;6077;-76
2023/12/20 04:52:28;;;;;;;;;;;21.60;40.80;;;;;;3050733;19;5485;-75
2023/12/20 04:53:28;;;;;;;;;;;21.70;40.70;;;;;;3051370;19;4674;-75
2023/12/20 04:54:29;;;;;;;;;;;21.70;40.70;;;;;;3028101;19;5209;-75
2023/12/20 04:55:31;;;;;;;;;;;21.70;40.60;;;;;;3049825;19;5402;-75
2023/12/20 04:56:32;;;;;;;;;;;21.80;40.50;;;;;;3028528;19;5246;-74
2023/12/20 04:57:34;;;;;;;;;;;21.80;40.60;;;;;;3051512;19;4850;-75
2023/12/20 04:58:36;;;;;;;;;;;21.80;40.40;;;;;;3051336;19;5522;-76
2023/12/20 04:59:36;;;;;;;;;;;21.80;40.60;;;;;;3028823;19;5317;-75
2023/12/20 05:00:37;;;;;;;;;;;21.80;40.50;;;;;;3049829;19;4687;-74
2023/12/20 05:01:38;;;;;;;;;;;21.80;40.50;;;;;;3028930;19;5365;-74
2023/12/20 05:02:39;;;;;;;;;;;21.80;40.40;;;;;;3050706;19;5387;-75
2023/12/20 05:03:39;;;;;;;;;;;21.80;40.40;;;;;;3048821;19;4648;-75
2023/12/20 05:04:41;;;;;;;;;;;21.80;40.50;;;;;;3028150;19;4941;-74
2023/12/20 05:05:41;;;;;;;;;;;21.80;40.40;;;;;;3050705;19;5438;-74
2023/12/20 05:06:43;;;;;;;;;;;21.80;40.40;;;;;;3050473;19;5814;-76
2023/12/20 05:07:44;;;;;;;;;;;21.80;40.50;;;;;;3028561;19;4771;-76
2023/12/20 05:08:45;;;;;;;;;;;21.80;40.60;;;;;;3049482;19;5303;-76
2023/12/20 05:09:45;;;;;;;;;;;21.70;40.40;;;;;;3028502;19;5303;-75
2023/12/20 05:10:46;;;;;;;;;;;21.70;40.60;;;;;;3051025;19;5370;-75
2023/12/20 05:11:47;;;;;;;;;;;21.70;40.50;;;;;;3051065;19;5405;-75
2023/12/20 05:12:48;;;;;;;;;;;21.70;40.60;;;;;;3028465;19;5419;-75
2023/12/20 05:13:49;;;;;;;;;;;21.70;40.60;;;;;;3050480;19;5336;-75
2023/12/20 05:14:51;;;;;;;;;;;21.60;40.50;;;;;;3051580;19;5307;-76
2023/12/20 05:15:52;;;;;;;;;;;21.60;40.60;;;;;;3029358;19;5299;-77
2023/12/20 05:16:52;;;;;;;;;;;21.60;40.60;;;;;;3054133;19;5570;-75
2023/12/20 05:17:53;;;;;;;;;;;21.60;40.90;;;;;;3040407;19;5497;-75
2023/12/20 05:18:54;;;;;;;;;;;21.60;40.30;;;;;;3060915;19;4770;-75
2023/12/20 05:19:54;;;;;;;;;;;21.60;40.40;;;;;;3061803;19;5300;-76
2023/12/20 05:20:55;;;;;;;;;;;21.60;40.40;;;;;;3038104;19;5817;-70
2023/12/20 05:21:56;;;;;;;;;;;21.60;40.50;;;;;;3059526;19;4769;-71
2023/12/20 05:22:56;;;;;;;;;;;21.70;40.50;;;;;;3042995;19;5322;-71
2023/12/20 05:23:57;;;;;;;;;;;21.70;40.40;;;;;;3060521;19;5386;-71
2023/12/20 05:24:59;;;;;;;;;;;21.70;40.40;;;;;;3060315;19;5178;-71
2023/12/20 05:25:59;;;;;;;;;;;21.80;40.50;;;;;;3039622;19;5371;-71
2023/12/20 05:27:00;;;;;;;;;;;21.80;40.20;;;;;;3060701;19;5359;-71
2023/12/20 05:28:01;;;;;;;;;;;21.80;40.20;;;;;;3059790;19;5280;-71
2023/12/20 05:29:01;;;;;;;;;;;21.90;40.30;;;;;;3038503;19;5136;-72
2023/12/20 05:30:04;;;;;;;;;;;21.90;40.20;;;;;;3060499;19;5355;-71
2023/12/20 05:31:06;;;;;;;;;;;21.90;40.10;;;;;;3038634;19;5351;-70
2023/12/20 05:32:07;;;;;;;;;;;21.90;40.20;;;;;;3060323;19;5630;-71
2023/12/20 05:33:08;;;;;;;;;;;21.90;40.20;;;;;;3060623;19;5321;-71
2023/12/20 05:34:10;;;;;;;;;;;21.90;40.20;;;;;;3039532;19;5307;-71
2023/12/20 05:35:11;;;;;;;;;;;21.80;40.10;;;;;;3060284;19;5288;-72
2023/12/20 05:36:14;;;;;;;;;;;21.80;40.10;;;;;;3059820;19;5040;-72
2023/12/20 05:37:16;;;;;;;;;;;21.80;40.20;;;;;;3038723;19;5195;-71
2023/12/20 05:38:17;;;;;;;;;;;21.80;40.30;;;;;;3060588;19;5344;-71
2023/12/20 05:39:17;;;;;;;;;;;21.80;40.20;;;;;;3038679;19;5279;-72
2023/12/20 05:40:18;;;;;;;;;;;21.80;40.20;;;;;;3061171;19;5166;-75
2023/12/20 05:41:21;;;;;;;;;;;21.70;40.20;;;;;;3061208;19;5158;-75
2023/12/20 05:42:22;;;;;;;;;;;21.70;40.20;;;;;;3037068;19;4756;-76
2023/12/20 05:43:22;;;;;;;;;;;21.70;40.20;;;;;;3060659;19;5362;-75
2023/12/20 05:44:23;;;;;;;;;;;21.70;40.40;;;;;;3038841;19;5463;-75
2023/12/20 05:45:24;;;;;;;;;;;21.70;40.20;;;;;;3061018;19;5636;-75
2023/12/20 05:46:24;;;;;;;;;;;21.70;40.40;;;;;;3039341;19;5473;-75
2023/12/20 05:47:26;;;;;;;;;;;21.60;40.00;;;;;;3036683;19;5126;-75
2023/12/20 05:48:27;;;;;;;;;;;21.60;40.00;;;;;;3060130;19;4762;-75
2023/12/20 05:49:31;;;;;;;;;;;21.60;40.00;;;;;;3056328;19;4924;-75
2023/12/20 05:50:32;;;;;;;;;;;21.60;40.00;;;;;;3038170;19;5237;-74
2023/12/20 05:51:33;;;;;;;;;;;21.60;40.00;;;;;;3059620;19;5423;-75
2023/12/20 05:52:35;;;;;;;;;;;21.60;40.00;;;;;;3038832;19;5651;-76
2023/12/20 05:53:37;;;;;;;;;;;21.60;40.20;;;;;;3060476;19;6076;-77
2023/12/20 05:54:38;;;;;;;;;;;21.60;40.00;;;;;;3061479;19;5260;-75
2023/12/20 05:55:42;;;;;;;;;;;21.70;40.10;;;;;;3051052;19;4683;-76
2023/12/20 05:56:43;;;;;;;;;;;21.70;40.00;;;;;;3073121;19;5345;-75
2023/12/20 05:57:45;;;;;;;;;;;21.70;40.00;;;;;;3051483;19;5467;-75
2023/12/20 05:58:46;;;;;;;;;;;21.60;40.00;;;;;;3053286;19;5193;-75
2023/12/20 05:59:46;;;;;;;;;;;21.70;40.10;;;;;;3074773;19;4972;-75
2023/12/20 06:00:48;;;;;;;;;;;21.70;39.90;;;;;;3052345;19;5392;-75
2023/12/20 06:01:50;;;;;;;;;;;21.70;40.10;;;;;;3074314;19;5267;-75
2023/12/20 06:02:51;;;;;;;;;;;21.70;40.00;;;;;;3074861;19;5563;-76
2023/12/20 06:03:51;;;;;;;;;;;21.70;39.90;;;;;;3051989;19;4705;-75
2023/12/20 06:04:52;;;;;;;;;;;21.70;40.00;;;;;;3073930;19;5488;-75
2023/12/20 06:05:53;;;;;;;;;;;21.70;39.80;;;;;;3052845;19;4754;-76
2023/12/20 06:06:53;;;;;;;;;;;21.70;40.70;;;;;;3074708;19;5251;-76
2023/12/20 06:07:56;;;;;;;;;;;21.70;39.90;;;;;;3073332;19;5054;-74
2023/12/20 06:08:57;;;;;;;;;;;21.70;39.90;;;;;;3052557;19;5440;-75
2023/12/20 06:09:57;;;;;;;;;;;21.70;39.80;;;;;;3074243;19;5264;-75
2023/12/20 06:10:58;;;;;;;;;;;21.80;39.90;;;;;;3052034;19;5661;-74
2023/12/20 06:11:58;;;;;;;;;;;21.70;39.90;;;;;;3072671;19;4710;-74
2023/12/20 06:13:00;;;;;;;;;;;21.70;40.00;;;;;;3073849;19;4778;-74
2023/12/20 06:14:01;;;;;;;;;;;21.70;39.80;;;;;;3052296;19;4890;-74
2023/12/20 06:15:03;;;;;;;;;;;21.80;39.90;;;;;;3073968;19;5342;-76
2023/12/20 06:16:05;;;;;;;;;;;21.70;39.90;;;;;;3073833;19;5223;-76
2023/12/20 06:17:06;;;;;;;;;;;21.80;40.00;;;;;;3046145;19;5733;-75
2023/12/20 06:18:06;;;;;;;;;;;21.70;39.90;;;;;;3063177;19;5182;-73
2023/12/20 06:19:07;;;;;;;;;;;21.70;39.90;;;;;;3041667;19;5231;-76
2023/12/20 06:20:09;;;;;;;;;;;21.70;39.80;;;;;;3062202;19;5313;-73
2023/12/20 06:21:12;;;;;;;;;;;21.70;39.90;;;;;;3063291;19;4750;-74
2023/12/20 06:22:13;;;;;;;;;;;21.70;39.80;;;;;;3041131;19;4778;-76
2023/12/20 06:23:14;;;;;;;;;;;21.70;39.90;;;;;;3061638;19;6334;-76
2023/12/20 06:24:14;;;;;;;;;;;21.70;39.80;;;;;;3060615;19;4845;-74
2023/12/20 06:25:15;;;;;;;;;;;21.70;39.70;;;;;;3038963;19;11794;-76
2023/12/20 06:26:17;;;;;;;;;;;21.70;39.60;;;;;;3060217;19;5663;-75
2023/12/20 06:27:18;;;;;;;;;;;21.70;39.70;;;;;;3040424;19;4825;-75
2023/12/20 06:28:18;;;;;;;;;;;21.70;39.70;;;;;;3061284;19;5939;-75
2023/12/20 06:29:19;;;;;;;;;;;21.60;39.80;;;;;;3062301;19;5361;-75
2023/12/20 06:30:19;;;;;;;;;;;21.60;39.80;;;;;;3040119;19;5236;-70
2023/12/20 06:31:20;;;;;;;;;;;21.60;39.90;;;;;;3061874;19;5575;-75
2023/12/20 06:32:23;;;;;;;;;;;21.70;39.90;;;;;;3039403;19;4673;-74
2023/12/20 06:33:25;;;;;;;;;;;21.70;39.80;;;;;;3061296;19;5417;-76
2023/12/20 06:34:26;;;;;;;;;;;21.80;39.90;;;;;;3061091;19;4687;-75
2023/12/20 06:35:26;;;;;;;;;;;21.80;39.90;;;;;;3039554;19;5715;-75
2023/12/20 06:36:28;;;;;;;;;;;21.90;39.70;;;;;;3060675;19;5319;-76
2023/12/20 06:37:30;;;;;;;;;;;21.90;39.70;;;;;;3061875;19;4655;-74
2023/12/20 06:38:31;;;;;;;;;;;22.00;39.70;;;;;;3039675;19;5185;-75
2023/12/20 06:39:33;;;;;;;;;;;22.00;39.70;;;;;;3039276;19;5359;-74
2023/12/20 06:40:34;;;;;;;;;;;22.00;39.80;;;;;;3038615;19;5201;-75
2023/12/20 06:41:35;;;;;;;;;;;22.00;39.70;;;;;;3060387;19;4688;-76
2023/12/20 06:42:35;;;;;;;;;;;22.00;39.80;;;;;;3061519;19;4901;-75
2023/12/20 06:43:36;;;;;;;;;;;22.10;40.00;;;;;;3039197;19;5229;-75
2023/12/20 06:44:37;;;;;;;;;;;22.00;39.90;;;;;;3060153;19;5295;-75
2023/12/20 06:45:38;;;;;;;;;;;22.00;40.10;;;;;;3041296;19;5298;-75
2023/12/20 06:46:38;;;;;;;;;;;22.00;40.20;;;;;;3060808;19;5505;-76
2023/12/20 06:47:40;;;;;;;;;;;22.00;40.10;;;;;;3060414;19;4786;-75
2023/12/20 06:48:41;;;;;;;;;;;21.90;40.00;;;;;;3038726;19;5384;-75
2023/12/20 06:49:42;;;;;;;;;;;21.90;40.10;;;;;;3061460;19;5219;-77
2023/12/20 06:50:43;;;;;;;;;;;21.80;39.70;;;;;;3061649;19;4646;-76
2023/12/20 06:51:43;;;;;;;;;;;21.80;39.70;;;;;;3039134;19;4620;-75
2023/12/20 06:52:44;;;;;;;;;;;21.80;39.80;;;;;;3061469;19;4801;-76
2023/12/20 06:53:45;;;;;;;;;;;21.80;39.80;;;;;;3040214;19;4807;-76
2023/12/20 06:54:45;;;;;;;;;;;21.80;39.80;;;;;;3060277;19;5012;-74
2023/12/20 06:55:46;;;;;;;;;;;21.80;39.80;;;;;;3061145;19;5544;-75
2023/12/20 06:56:46;;;;;;;;;;;21.80;39.90;;;;;;3038874;19;4854;-75
2023/12/20 06:57:47;;;;;;;;;;;21.80;39.90;;;;;;3062387;19;5466;-76
2023/12/20 06:58:48;;;;;;;;;;;21.80;39.90;;;;;;3063045;19;4811;-76
2023/12/20 06:59:48;;;;;;;;;;;21.90;39.90;;;;;;3043620;19;5246;-74
2023/12/20 07:00:50;;;;;;;;;;;22.00;39.80;;;;;;3064513;19;5246;-75
2023/12/20 07:01:50;;;;;;;;;;;22.00;39.80;;;;;;3040746;19;5208;-75
2023/12/20 07:02:52;;;;;;;;;;;22.10;39.80;;;;;;3063251;19;5425;-73
2023/12/20 07:03:52;;;;;;;;;;;22.10;39.60;;;;;;3058392;19;5266;-75
2023/12/20 07:04:53;;;;;;;;;;;22.10;39.70;;;;;;3020834;19;4852;-74
2023/12/20 07:05:54;;;;;;;;;;;22.10;39.70;;;;;;3063487;19;4761;-74
2023/12/20 07:06:57;;;;;;;;;;;22.10;39.60;;;;;;3063442;19;5359;-74
2023/12/20 07:07:57;;;;;;;;;;;22.00;39.50;;;;;;3040845;19;5181;-74
2023/12/20 07:08:58;;;;;;;;;;;22.00;39.50;;;;;;3063335;19;5195;-74
2023/12/20 07:09:59;;;;;;;;;;;22.00;39.50;;;;;;3041540;19;5356;-75
2023/12/20 07:10:59;;;;;;;;;;;22.00;39.60;;;;;;3063495;19;5414;-74
2023/12/20 07:12:00;;;;;;;;;;;22.00;39.70;;;;;;3040531;19;5254;-75
2023/12/20 07:13:02;;;;;;;;;;;22.00;39.70;;;;;;3040752;19;5209;-74
2023/12/20 07:14:02;;;;;;;;;;;22.00;39.60;;;;;;3062203;19;5384;-75
2023/12/20 07:15:05;;;;;;;;;;;22.00;39.80;;;;;;3041538;19;4934;-75
2023/12/20 07:16:07;;;;;;;;;;;22.00;39.70;;;;;;3040833;19;5354;-74
2023/12/20 07:17:11;;;;;;;;;;;21.90;39.80;;;;;;3061643;19;4647;-75
2023/12/20 07:18:12;;;;;;;;;;;21.90;39.70;;;;;;3040097;19;5248;-73
2023/12/20 07:19:12;;;;;;;;;;;21.90;39.80;;;;;;3062401;19;5394;-76
2023/12/20 07:20:13;;;;;;;;;;;21.80;39.70;;;;;;3062062;19;5490;-75
2023/12/20 07:21:15;;;;;;;;;;;21.80;39.80;;;;;;3040249;19;4160;-74
2023/12/20 07:22:16;;;;;;;;;;;21.90;39.80;;;;;;3061852;19;4767;-74
2023/12/20 07:23:17;;;;;;;;;;;21.80;39.80;;;;;;3040625;19;4503;-73
2023/12/20 07:24:17;;;;;;;;;;;21.80;39.80;;;;;;3061511;19;5570;-74
2023/12/20 07:25:19;;;;;;;;;;;21.80;39.80;;;;;;3061520;19;5450;-73
2023/12/20 07:26:20;;;;;;;;;;;21.80;40.10;;;;;;3039892;19;5307;-72
2023/12/20 07:27:21;;;;;;;;;;;21.70;39.90;;;;;;3062983;19;5483;-73
2023/12/20 07:28:22;;;;;;;;;;;21.70;39.70;;;;;;3040017;19;5405;-73
2023/12/20 07:29:22;;;;;;;;;;;21.70;39.60;;;;;;3062194;19;5251;-72
2023/12/20 07:30:23;;;;;;;;;;;21.70;39.70;;;;;;3062752;19;5361;-72
2023/12/20 07:31:24;;;;;;;;;;;21.70;39.70;;;;;;3040030;19;5940;-73
2023/12/20 07:32:24;;;;;;;;;;;21.70;39.70;;;;;;3062146;19;5395;-74
2023/12/20 07:33:26;;;;;;;;;;;21.70;39.70;;;;;;3040489;19;4659;-72
2023/12/20 07:34:27;;;;;;;;;;;21.70;39.70;;;;;;3040602;19;5380;-73
2023/12/20 07:35:27;;;;;;;;;;;21.70;39.80;;;;;;3062112;19;5345;-72
2023/12/20 07:36:28;;;;;;;;;;;21.70;39.80;;;;;;3042123;19;7472;-73
2023/12/20 07:37:30;;;;;;;;;;;21.70;39.80;;;;;;3062201;19;5219;-73
2023/12/20 07:38:30;;;;;;;;;;;21.70;39.80;;;;;;3062577;19;4797;-74
2023/12/20 07:39:32;;;;;;;;;;;21.70;39.90;;;;;;3038866;19;5223;-74
2023/12/20 07:40:33;;;;;;;;;;;21.70;39.80;;;;;;3062190;19;5300;-70
2023/12/20 07:41:35;;;;;;;;;;;21.70;39.90;;;;;;3062243;19;5309;-70
2023/12/20 07:42:35;;;;;;;;;;;21.70;39.80;;;;;;3041134;19;4542;-68
2023/12/20 07:43:37;;;;;;;;;;;21.80;39.90;;;;;;3061775;19;5502;-69
2023/12/20 07:44:39;;;;;;;;;;;21.80;39.80;;;;;;3039064;19;5515;-68
2023/12/20 07:45:40;;;;;;;;;;;21.80;39.80;;;;;;3061029;19;5328;-70
2023/12/20 07:46:41;;;;;;;;;;;21.80;39.70;;;;;;3061267;19;5580;-72
2023/12/20 07:47:42;;;;;;;;;;;21.80;39.70;;;;;;3040170;19;4721;-71
2023/12/20 07:48:43;;;;;;;;;;;21.80;39.80;;;;;;3062534;19;4842;-69
2023/12/20 07:49:43;;;;;;;;;;;21.80;39.90;;;;;;3039523;19;5197;-72
2023/12/20 07:50:44;;;;;;;;;;;21.80;40.00;;;;;;3061195;19;5282;-72
2023/12/20 07:51:45;;;;;;;;;;;21.90;39.90;;;;;;3061438;19;5376;-72
2023/12/20 07:52:45;;;;;;;;;;;21.90;39.80;;;;;;3039745;19;4844;-71
2023/12/20 07:53:46;;;;;;;;;;;21.80;39.70;;;;;;3060835;19;6400;-73
2023/12/20 07:54:48;;;;;;;;;;;21.80;39.90;;;;;;3061735;19;5317;-72
2023/12/20 07:55:48;;;;;;;;;;;21.80;39.70;;;;;;3039495;19;4516;-72
2023/12/20 07:56:49;;;;;;;;;;;21.90;39.90;;;;;;3061697;19;4817;-73
2023/12/20 07:57:50;;;;;;;;;;;21.80;39.70;;;;;;3040321;19;5191;-72
2023/12/20 07:58:50;;;;;;;;;;;21.90;39.80;;;;;;3060541;19;6378;-72
2023/12/20 07:59:51;;;;;;;;;;;21.90;39.80;;;;;;3060217;19;5245;-71
2023/12/20 08:00:53;;;;;;;;;;;21.80;39.70;;;;;;3039852;19;5375;-70
2023/12/20 08:01:54;;;;;;;;;;;21.80;39.70;;;;;;3061699;19;5623;-69
2023/12/20 08:02:55;;;;;;;;;;;21.80;39.80;;;;;;3061822;19;5369;-69
2023/12/20 08:03:57;;;;;;;;;;;21.80;39.80;;;;;;3039777;19;5188;-70
2023/12/20 08:04:58;;;;;;;;;;;21.80;39.80;;;;;;3061286;19;5036;-70
2023/12/20 08:05:59;;;;;;;;;;;21.80;39.80;;;;;;3039433;19;5273;-69
2023/12/20 08:07:00;;;;;;;;;;;21.80;39.80;;;;;;3061463;19;5354;-70
2023/12/20 08:08:01;;;;;;;;;;;21.80;39.70;;;;;;3037826;19;5409;-69
2023/12/20 08:09:01;;;;;;;;;;;21.80;39.70;;;;;;3040025;19;5755;-69